Time;durP1;ratioP1;P1;durP2;ratioP2;P2;SDS_P1;SDS_P2;PMS_P1;PMS_P2;Temp;Humidity;BMP_temperature;BMP_pressure;BME280_temperature;BME280_humidity;BME280_pressure;Samples;Min_cycle;Max_cycle;Signal;HPM_P1;HPM_P2
2022/01/10 00:00:43;;;;;;;49.03;9.18;;;;;;;2.66;100.00;97295.53;5066509;28;20064;-57
2022/01/10 00:03:09;;;;;;;51.13;9.35;;;;;;;2.59;100.00;97303.41;5060099;28;20135;-57
2022/01/10 00:05:35;;;;;;;49.63;9.68;;;;;;;2.67;100.00;97298.97;5061932;28;20048;-59
2022/01/10 00:10:35;;;;;;;123.10;20.55;;;;;;;2.94;100.00;97304.41;6029645;22;20011;-56
2022/01/10 00:13:01;;;;;;;35.67;9.13;;;;;;;2.76;100.00;97303.94;5052255;28;20044;-52
2022/01/10 00:15:27;;;;;;;33.58;8.63;;;;;;;2.83;100.00;97299.47;5062299;28;20055;-52
2022/01/10 00:17:52;;;;;;;24.60;7.55;;;;;;;2.87;100.00;97299.41;5067370;28;20107;-53
2022/01/10 00:20:19;;;;;;;32.03;8.40;;;;;;;2.83;100.00;97297.78;5066637;28;20032;-53
2022/01/10 00:22:48;;;;;;;23.30;7.03;;;;;;;2.83;100.00;97310.66;5057599;28;20029;-53
2022/01/10 00:25:15;;;;;;;27.13;7.50;;;;;;;2.78;100.00;97317.63;5055517;28;20031;-53
2022/01/10 00:27:42;;;;;;;25.83;7.90;;;;;;;2.81;100.00;97319.28;5061169;28;20036;-53
2022/01/10 00:30:10;;;;;;;25.23;7.63;;;;;;;2.63;100.00;97313.63;5061892;28;20791;-53
2022/01/10 00:32:36;;;;;;;28.63;7.75;;;;;;;2.51;100.00;97317.28;5062378;28;20021;-52
2022/01/10 00:35:01;;;;;;;22.40;6.90;;;;;;;2.91;100.00;97317.38;5066590;28;20035;-52
2022/01/10 00:37:27;;;;;;;25.60;7.43;;;;;;;2.78;100.00;97315.03;5066531;28;20464;-55
2022/01/10 00:39:52;;;;;;;26.23;7.93;;;;;;;2.79;100.00;97323.59;5067682;28;20296;-52
2022/01/10 00:42:17;;;;;;;21.05;6.97;;;;;;;2.94;100.00;97325.00;5068632;28;20075;-53
2022/01/10 00:44:51;;;;;;;23.58;6.68;;;;;;;2.88;100.00;97331.97;5066322;28;20024;-53
2022/01/10 00:47:17;;;;;;;26.33;7.45;;;;;;;2.87;100.00;97325.16;5066564;28;20669;-52
2022/01/10 00:49:43;;;;;;;26.60;7.72;;;;;;;3.01;100.00;97331.72;5069918;28;20036;-52
2022/01/10 00:52:09;;;;;;;20.08;6.85;;;;;;;2.72;100.00;97330.63;5074070;28;20090;-53
2022/01/10 00:54:35;;;;;;;20.17;6.63;;;;;;;2.67;100.00;97329.88;5067589;28;20041;-52
2022/01/10 00:57:00;;;;;;;24.00;6.85;;;;;;;2.66;100.00;97333.31;5063858;28;20033;-53
2022/01/10 00:59:25;;;;;;;24.88;7.28;;;;;;;2.89;100.00;97333.69;5065136;28;20063;-52
2022/01/10 01:01:51;;;;;;;22.52;6.88;;;;;;;2.73;100.00;97346.91;5065638;28;20036;-54
2022/01/10 01:04:16;;;;;;;28.55;7.60;;;;;;;2.68;100.00;97342.72;5065175;28;20451;-52
2022/01/10 01:06:42;;;;;;;20.80;7.10;;;;;;;2.67;100.00;97345.31;5067593;28;20131;-52
2022/01/10 01:09:10;;;;;;;23.65;7.13;;;;;;;2.65;100.00;97349.66;5068333;28;20127;-52
2022/01/10 01:17:11;;;;;;;24.02;7.55;;;;;;;2.95;100.00;97368.78;5067797;28;20067;-52
2022/01/10 01:25:03;;;;;;;27.75;8.15;;;;;;;2.86;100.00;97368.97;5066773;28;20094;-53
2022/01/10 01:27:29;;;;;;;25.30;6.78;;;;;;;2.66;100.00;97366.78;5065594;28;20044;-51
2022/01/10 01:29:54;;;;;;;27.83;7.45;;;;;;;2.82;100.00;97373.31;5065141;28;20039;-53
2022/01/10 01:32:20;;;;;;;25.55;6.75;;;;;;;2.85;100.00;97375.84;5033702;28;20113;-52
2022/01/10 01:34:45;;;;;;;22.85;7.47;;;;;;;2.73;100.00;97372.69;5068476;28;20051;-53
2022/01/10 01:37:11;;;;;;;22.48;7.47;;;;;;;2.64;100.00;97366.81;5065769;28;20045;-52
2022/01/10 01:39:37;;;;;;;21.95;7.20;;;;;;;2.32;100.00;97382.88;5067878;28;20032;-53
2022/01/10 01:42:17;;;;;;;26.30;8.45;;;;;;;2.11;100.00;97384.97;5067052;28;20032;-51
2022/01/10 01:44:42;;;;;;;28.00;7.25;;;;;;;2.26;100.00;97394.13;5067573;28;20024;-52
2022/01/10 01:47:08;;;;;;;24.92;7.63;;;;;;;2.29;100.00;97388.06;5065229;28;20066;-51
2022/01/10 01:49:33;;;;;;;23.50;7.47;;;;;;;2.35;100.00;97385.38;5064506;28;20017;-52
2022/01/10 01:51:58;;;;;;;25.73;8.07;;;;;;;2.33;100.00;97392.28;5065620;28;20408;-51
2022/01/10 01:54:24;;;;;;;29.25;7.57;;;;;;;2.33;100.00;97394.84;5064762;28;20028;-53
2022/01/10 01:56:51;;;;;;;28.92;7.95;;;;;;;2.40;100.00;97393.88;5067149;28;20040;-53
2022/01/10 01:59:17;;;;;;;25.27;8.13;;;;;;;2.39;100.00;97397.34;5051822;28;20067;-52
2022/01/10 02:01:42;;;;;;;25.65;8.10;;;;;;;2.45;100.00;97404.09;5052693;28;20228;-53
2022/01/10 02:04:08;;;;;;;28.02;8.57;;;;;;;2.30;100.00;97402.66;5066900;28;20033;-54
2022/01/10 02:06:33;;;;;;;26.63;8.18;;;;;;;2.41;100.00;97403.31;5066822;28;20036;-52
2022/01/10 02:08:58;;;;;;;25.85;8.30;;;;;;;2.53;100.00;97409.94;5066017;28;20028;-52
2022/01/10 02:11:24;;;;;;;28.33;8.40;;;;;;;2.58;100.00;97404.72;5064840;28;20144;-54
2022/01/10 02:13:49;;;;;;;25.92;7.70;;;;;;;2.57;100.00;97408.16;5065821;28;20047;-54
2022/01/10 02:16:22;;;;;;;23.58;8.07;;;;;;;2.64;100.00;97410.59;5064864;28;20036;-53
2022/01/10 02:18:49;;;;;;;27.13;8.32;;;;;;;2.27;100.00;97421.53;5064266;28;20025;-54
2022/01/10 02:21:15;;;;;;;26.80;8.18;;;;;;;2.27;100.00;97431.84;5065085;28;20047;-53
2022/01/10 02:23:41;;;;;;;25.50;7.90;;;;;;;2.00;100.00;97432.28;5063523;28;20020;-54
2022/01/10 02:26:06;;;;;;;30.85;8.95;;;;;;;2.28;100.00;97441.28;5064741;28;20045;-56
2022/01/10 02:28:32;;;;;;;25.00;8.40;;;;;;;1.75;100.00;97442.97;5068668;28;20418;-53
2022/01/10 02:30:58;;;;;;;27.40;8.13;;;;;;;1.78;100.00;97448.03;5063138;28;20069;-54
2022/01/10 02:33:25;;;;;;;26.05;8.20;;;;;;;2.22;100.00;97450.81;5065514;28;20388;-51
2022/01/10 02:38:21;;;;;;;22.10;7.70;;;;;;;2.23;100.00;97460.22;5063684;28;20075;-52
2022/01/10 02:40:49;;;;;;;22.48;7.63;;;;;;;2.45;100.00;97471.84;5065562;28;20832;-53
2022/01/10 02:43:14;;;;;;;29.95;9.07;;;;;;;2.34;100.00;97478.91;5065413;28;20073;-51
2022/01/10 02:45:39;;;;;;;29.10;8.95;;;;;;;2.70;100.00;97484.28;5063693;28;20710;-53
2022/01/10 02:48:05;;;;;;;35.60;9.23;;;;;;;2.50;100.00;97480.38;5065981;28;20139;-52
2022/01/10 02:50:30;;;;;;;24.92;8.25;;;;;;;2.45;100.00;97482.16;5064234;28;20108;-53
2022/01/10 02:52:55;;;;;;;31.42;8.77;;;;;;;2.67;100.00;97486.94;5064628;28;20066;-52
2022/01/10 02:55:21;;;;;;;26.85;8.55;;;;;;;2.45;100.00;97487.31;5064840;28;20035;-53
2022/01/10 02:57:46;;;;;;;28.90;8.85;;;;;;;2.38;100.00;97496.00;5065848;28;20634;-53
2022/01/10 03:00:21;;;;;;;26.75;8.32;;;;;;;2.24;100.00;97500.50;5064964;28;20032;-53
2022/01/10 03:02:50;;;;;;;30.35;8.25;;;;;;;2.26;100.00;97509.06;5064580;28;20089;-54
2022/01/10 03:05:17;;;;;;;20.90;7.05;;;;;;;2.36;100.00;97507.22;5063904;28;20032;-51
2022/01/10 03:07:43;;;;;;;28.65;7.45;;;;;;;2.44;100.00;97518.22;5066574;28;20070;-52
2022/01/10 03:10:09;;;;;;;26.33;8.13;;;;;;;2.48;100.00;97515.59;5064463;28;20024;-52
2022/01/10 03:12:35;;;;;;;26.70;8.20;;;;;;;2.45;100.00;97523.34;5063574;28;20028;-52
2022/01/10 03:15:03;;;;;;;24.50;7.90;;;;;;;2.53;100.00;97530.09;5061985;28;20114;-53
2022/01/10 03:17:28;;;;;;;25.15;7.95;;;;;;;2.51;100.00;97528.38;5063394;28;20055;-52
2022/01/10 03:19:53;;;;;;;35.58;8.27;;;;;;;2.62;100.00;97535.09;5063189;28;20020;-53
2022/01/10 03:22:19;;;;;;;26.25;8.20;;;;;;;2.63;100.00;97531.66;5062512;28;20035;-52
2022/01/10 03:24:45;;;;;;;24.40;8.45;;;;;;;2.43;100.00;97530.25;5064531;28;20027;-52
2022/01/10 03:27:10;;;;;;;23.02;8.82;;;;;;;2.49;100.00;97531.88;5065229;28;20151;-53
2022/01/10 03:29:35;;;;;;;31.65;8.77;;;;;;;2.59;100.00;97540.28;5063155;28;20070;-53
2022/01/10 03:32:02;;;;;;;24.75;8.20;;;;;;;2.43;100.00;97540.53;5056573;28;20045;-52
2022/01/10 03:34:28;;;;;;;29.58;8.43;;;;;;;2.48;100.00;97533.59;5064181;28;20024;-52
2022/01/10 03:36:54;;;;;;;27.55;8.77;;;;;;;2.63;100.00;97547.09;5062352;28;20114;-54
2022/01/10 03:39:20;;;;;;;27.98;9.27;;;;;;;2.35;100.00;97541.53;5063359;28;20040;-53
2022/01/10 03:41:45;;;;;;;23.60;8.48;;;;;;;2.35;100.00;97547.50;5063460;28;20040;-52
2022/01/10 03:44:10;;;;;;;26.20;8.73;;;;;;;2.34;100.00;97550.97;5065829;28;20493;-52
2022/01/10 03:46:36;;;;;;;29.83;9.23;;;;;;;2.55;100.00;97548.94;5064852;28;20699;-53
2022/01/10 03:49:02;;;;;;;22.48;8.35;;;;;;;2.50;100.00;97552.44;5063030;28;20031;-52
2022/01/10 03:51:27;;;;;;;28.75;8.98;;;;;;;2.38;100.00;97562.09;5062629;28;20047;-51
2022/01/10 03:53:53;;;;;;;30.50;8.80;;;;;;;2.03;100.00;97564.28;5064478;28;20020;-53
2022/01/10 03:56:20;;;;;;;31.10;9.50;;;;;;;1.95;100.00;97571.28;5061221;28;20047;-52
2022/01/10 03:58:46;;;;;;;27.75;9.07;;;;;;;2.33;100.00;97572.44;5055798;28;20135;-51
2022/01/10 04:01:13;;;;;;;27.45;9.25;;;;;;;2.59;100.00;97579.78;5063018;28;20117;-53
2022/01/10 04:03:39;;;;;;;28.85;8.77;;;;;;;2.37;100.00;97580.97;5065008;28;20124;-53
2022/01/10 04:06:04;;;;;;;26.08;8.80;;;;;;;2.55;100.00;97595.28;5064072;28;20078;-54
2022/01/10 04:08:30;;;;;;;28.98;9.30;;;;;;;2.60;100.00;97596.91;5068006;28;20111;-52
2022/01/10 04:10:55;;;;;;;35.22;9.60;;;;;;;2.48;100.00;97597.09;5066328;28;20495;-52
2022/01/10 04:13:20;;;;;;;25.33;8.27;;;;;;;2.59;100.00;97602.94;5067925;28;20575;-53
2022/01/10 04:15:47;;;;;;;30.98;9.20;;;;;;;2.54;100.00;97606.44;5070753;28;20064;-52
2022/01/10 04:18:12;;;;;;;24.63;8.57;;;;;;;2.61;100.00;97608.91;5067024;28;20117;-52
2022/01/10 04:20:37;;;;;;;29.30;9.25;;;;;;;2.49;100.00;97609.09;5066586;28;20680;-52
2022/01/10 04:23:03;;;;;;;29.92;9.27;;;;;;;2.56;100.00;97613.28;5067574;28;20107;-53
2022/01/10 04:25:28;;;;;;;27.35;9.20;;;;;;;2.55;100.00;97616.72;5065821;28;20712;-53
2022/01/10 04:27:54;;;;;;;29.40;9.48;;;;;;;2.55;100.00;97613.31;5067288;28;20027;-54
2022/01/10 04:30:19;;;;;;;29.45;9.63;;;;;;;2.46;100.00;97628.03;5067887;28;20048;-52
2022/01/10 04:32:45;;;;;;;29.20;9.45;;;;;;;2.57;100.00;97629.56;5066469;28;20798;-52
2022/01/10 04:35:11;;;;;;;27.70;9.68;;;;;;;2.51;100.00;97621.06;5050986;28;20456;-52
2022/01/10 04:37:36;;;;;;;24.92;8.98;;;;;;;2.76;100.00;97643.88;5066668;28;20017;-52
2022/01/10 04:40:03;;;;;;;30.98;9.82;;;;;;;2.66;100.00;97629.44;5066015;28;20036;-51
2022/01/10 04:42:28;;;;;;;24.83;8.65;;;;;;;2.70;100.00;97641.38;5066300;28;20121;-51
2022/01/10 04:44:54;;;;;;;28.85;9.25;;;;;;;2.42;100.00;97635.81;5068597;28;20664;-53
2022/01/10 04:47:19;;;;;;;24.75;8.43;;;;;;;2.21;100.00;97642.94;5068672;28;20578;-51
2022/01/10 04:52:29;;;;;;;29.77;8.88;;;;;;;2.38;100.00;97658.16;5066587;28;20098;-52
2022/01/10 04:54:55;;;;;;;29.23;9.02;;;;;;;2.47;100.00;97657.19;5069029;28;20028;-52
2022/01/10 04:57:21;;;;;;;26.75;8.77;;;;;;;2.49;100.00;97658.84;5066031;28;20047;-51
2022/01/10 04:59:46;;;;;;;23.33;8.30;;;;;;;2.44;100.00;97660.63;5066801;28;20847;-50
2022/01/10 05:02:11;;;;;;;28.55;9.15;;;;;;;2.12;100.00;97661.09;5066370;28;20044;-52
2022/01/10 05:04:37;;;;;;;27.60;8.73;;;;;;;2.33;100.00;97667.66;5068847;28;20051;-52
2022/01/10 05:07:02;;;;;;;27.02;9.00;;;;;;;2.45;100.00;97667.50;5066168;28;20032;-52
2022/01/10 05:09:28;;;;;;;22.63;8.02;;;;;;;2.44;100.00;97670.94;5065542;28;20107;-51
2022/01/10 05:11:53;;;;;;;29.08;9.07;;;;;;;2.49;100.00;97669.16;5064869;28;20474;-51
2022/01/10 05:14:19;;;;;;;30.67;9.18;;;;;;;2.48;100.00;97671.75;5067866;28;20060;-53
2022/01/10 05:16:45;;;;;;;21.08;7.93;;;;;;;2.48;100.00;97675.19;5065619;28;20044;-52
2022/01/10 05:19:10;;;;;;;31.13;8.57;;;;;;;2.60;100.00;97671.56;5065551;28;20090;-52
2022/01/10 05:21:36;;;;;;;24.75;8.02;;;;;;;2.47;100.00;97680.34;5066370;28;20052;-53
2022/01/10 05:24:01;;;;;;;23.92;8.60;;;;;;;2.52;100.00;97681.16;5069716;28;20024;-55
2022/01/10 05:26:27;;;;;;;27.65;8.63;;;;;;;2.58;100.00;97682.78;5065647;28;20066;-52
2022/01/10 05:28:55;;;;;;;30.38;9.40;;;;;;;2.57;100.00;97687.06;5064998;28;20134;-52
2022/01/10 05:31:20;;;;;;;27.83;8.77;;;;;;;2.44;100.00;97688.94;5066936;28;20067;-54
2022/01/10 05:33:46;;;;;;;28.50;8.95;;;;;;;2.30;100.00;97698.59;5067558;28;20390;-52
2022/01/10 05:36:11;;;;;;;29.08;9.23;;;;;;;2.16;100.00;97700.50;5066301;28;20879;-53
2022/01/10 05:38:37;;;;;;;30.55;9.25;;;;;;;2.06;100.00;97695.47;5067537;28;20024;-53
2022/01/10 05:41:02;;;;;;;31.40;9.88;;;;;;;2.16;100.00;97708.22;5065059;28;20028;-53
2022/01/10 05:43:28;;;;;;;38.15;10.18;;;;;;;1.86;100.00;97718.84;5065454;28;20032;-54
2022/01/10 05:45:53;;;;;;;34.35;10.18;;;;;;;1.88;100.00;97713.69;5064158;28;20093;-53
2022/01/10 05:48:25;;;;;;;30.70;9.93;;;;;;;2.12;100.00;97721.09;5064847;28;20032;-52
2022/01/10 05:50:52;;;;;;;30.35;9.90;;;;;;;2.25;100.00;97724.38;5064241;28;20047;-53
2022/01/10 05:53:18;;;;;;;38.50;10.63;;;;;;;2.36;100.00;97724.25;5065564;28;20468;-52
2022/01/10 05:55:43;;;;;;;32.03;10.40;;;;;;;2.22;100.00;97732.13;5064733;28;20100;-54
2022/01/10 05:58:09;;;;;;;36.10;12.10;;;;;;;2.05;100.00;97734.91;5063620;28;20091;-53
2022/01/10 06:00:35;;;;;;;41.42;13.23;;;;;;;2.22;100.00;97741.56;5065187;28;20037;-53
2022/01/10 06:03:01;;;;;;;36.85;12.63;;;;;;;2.07;100.00;97743.44;5065104;28;20032;-52
2022/01/10 06:05:30;;;;;;;32.75;12.32;;;;;;;2.15;100.00;97745.97;5067465;28;20041;-54
2022/01/10 06:07:57;;;;;;;28.95;11.18;;;;;;;2.14;100.00;97761.41;5068330;28;20021;-53
2022/01/10 06:10:23;;;;;;;28.55;11.73;;;;;;;2.09;100.00;97759.72;5068834;28;20028;-54
2022/01/10 06:12:49;;;;;;;29.95;11.25;;;;;;;2.09;100.00;97762.28;5068202;28;20386;-53
2022/01/10 06:15:14;;;;;;;31.17;11.07;;;;;;;2.26;100.00;97769.84;5065625;28;20489;-53
2022/01/10 06:17:39;;;;;;;29.92;11.07;;;;;;;2.10;100.00;97769.16;5068470;28;20569;-53
2022/01/10 06:20:05;;;;;;;32.75;10.63;;;;;;;2.03;100.00;97772.66;5068629;28;20046;-52
2022/01/10 06:22:31;;;;;;;28.85;9.95;;;;;;;2.01;100.00;97776.97;5069226;28;20036;-54
2022/01/10 06:24:56;;;;;;;30.90;9.93;;;;;;;2.03;100.00;97782.09;5069899;28;20032;-53
2022/01/10 06:27:22;;;;;;;26.90;10.15;;;;;;;2.03;100.00;97797.53;5068361;28;20047;-53
2022/01/10 06:29:47;;;;;;;27.55;9.63;;;;;;;1.99;100.00;97791.56;5065016;28;20036;-53
2022/01/10 06:32:13;;;;;;;33.22;11.32;;;;;;;2.09;100.00;97798.31;5065914;28;20100;-53
2022/01/10 06:34:38;;;;;;;33.55;11.88;;;;;;;2.02;100.00;97800.97;5067399;28;20031;-53
2022/01/10 06:37:03;;;;;;;28.75;10.73;;;;;;;2.06;100.00;97808.66;5067560;28;20608;-53
2022/01/10 06:39:29;;;;;;;34.47;11.50;;;;;;;2.03;100.00;97820.69;5069078;28;20059;-52
2022/01/10 06:41:54;;;;;;;34.95;11.00;;;;;;;2.11;100.00;97819.75;5065246;28;20127;-55
2022/01/10 06:44:20;;;;;;;30.42;10.40;;;;;;;2.25;100.00;97827.31;5067147;28;20654;-53
2022/01/10 06:46:45;;;;;;;32.72;11.57;;;;;;;1.80;100.00;97832.06;5066392;28;20042;-54
2022/01/10 06:49:10;;;;;;;33.10;11.70;;;;;;;2.00;100.00;97838.72;5053806;28;20035;-53
2022/01/10 06:51:36;;;;;;;31.85;11.50;;;;;;;2.04;100.00;97846.41;5068015;28;20058;-54
2022/01/10 06:54:01;;;;;;;29.00;10.90;;;;;;;1.86;100.00;97852.56;5069386;28;20140;-53
2022/01/10 06:56:26;;;;;;;33.75;11.52;;;;;;;2.02;100.00;97858.44;5065697;28;20032;-53
2022/01/10 06:58:53;;;;;;;28.05;11.02;;;;;;;2.11;100.00;97868.66;5068782;28;20020;-53
2022/01/10 07:01:20;;;;;;;34.97;11.77;;;;;;;1.99;100.00;97873.91;5068064;28;20047;-52
2022/01/10 07:03:45;;;;;;;41.88;16.25;;;;;;;2.05;100.00;97876.41;5068006;28;20507;-52
2022/01/10 07:06:10;;;;;;;37.03;14.88;;;;;;;2.30;100.00;97879.59;5065925;28;20036;-56
2022/01/10 07:08:36;;;;;;;36.80;13.68;;;;;;;2.08;100.00;97881.53;5067329;28;20101;-54
2022/01/10 07:11:01;;;;;;;41.40;15.75;;;;;;;2.17;100.00;97890.03;5066149;28;20032;-52
2022/01/10 07:13:26;;;;;;;47.47;18.58;;;;;;;2.28;100.00;97891.66;5066675;28;20028;-54
2022/01/10 07:15:52;;;;;;;35.63;15.55;;;;;;;2.27;100.00;97897.66;5067888;28;21089;-52
2022/01/10 07:18:18;;;;;;;33.92;13.90;;;;;;;2.12;100.00;97901.22;5069119;28;20101;-50
2022/01/10 07:20:43;;;;;;;43.03;17.77;;;;;;;2.20;100.00;97897.72;5064032;28;20036;-51
2022/01/10 07:23:08;;;;;;;46.30;19.38;;;;;;;2.53;100.00;97909.41;5068921;28;20405;-52
2022/01/10 07:25:35;;;;;;;40.10;15.95;;;;;;;2.22;100.00;97917.41;5065848;28;20037;-51
2022/01/10 07:28:00;;;;;;;36.42;15.50;;;;;;;2.28;100.00;97921.69;5067466;28;20116;-50
2022/01/10 07:30:26;;;;;;;35.50;11.52;;;;;;;1.99;100.00;97929.66;5064584;28;20122;-52
2022/01/10 07:32:52;;;;;;;33.53;10.02;;;;;;;2.10;100.00;97926.09;5065307;28;20665;-52
2022/01/10 07:35:17;;;;;;;25.55;9.57;;;;;;;2.09;100.00;97926.97;5065579;28;20080;-52
2022/01/10 07:37:43;;;;;;;39.95;8.80;;;;;;;2.47;100.00;97927.50;5052813;28;20039;-51
2022/01/10 07:40:09;;;;;;;32.45;12.25;;;;;;;2.60;100.00;97933.38;5066258;28;20401;-50
2022/01/10 07:42:34;;;;;;;37.03;13.50;;;;;;;2.75;100.00;97932.38;5065909;28;20443;-52
2022/01/10 07:44:59;;;;;;;39.70;13.63;;;;;;;2.37;100.00;97939.63;5067600;28;20033;-52
2022/01/10 07:47:25;;;;;;;34.00;13.48;;;;;;;2.67;100.00;97950.47;5065383;28;21073;-52
2022/01/10 07:49:51;;;;;;;33.83;12.77;;;;;;;2.82;100.00;97939.16;5065624;28;20027;-53
2022/01/10 07:52:17;;;;;;;27.77;11.30;;;;;;;2.81;100.00;97948.63;5065620;28;20044;-54
2022/01/10 07:54:44;;;;;;;30.48;11.55;;;;;;;2.70;100.00;97953.00;5067739;28;20097;-53
2022/01/10 07:57:10;;;;;;;30.58;12.43;;;;;;;2.71;100.00;97965.03;5066147;28;20040;-52
2022/01/10 07:59:35;;;;;;;34.90;11.32;;;;;;;2.47;100.00;97960.97;5068335;28;20027;-54
2022/01/10 08:02:02;;;;;;;30.52;10.25;;;;;;;2.60;100.00;97979.72;5065505;28;20483;-55
2022/01/10 08:04:27;;;;;;;33.65;10.18;;;;;;;2.60;100.00;97984.88;5067907;28;20550;-54
2022/01/10 08:06:52;;;;;;;22.85;9.50;;;;;;;2.67;100.00;97984.81;5067891;28;20489;-53
2022/01/10 08:09:18;;;;;;;30.35;11.60;;;;;;;2.90;100.00;97988.84;5067855;28;20503;-53
2022/01/10 08:11:43;;;;;;;43.70;16.25;;;;;;;2.74;100.00;97993.34;5066886;28;20688;-52
2022/01/10 08:14:09;;;;;;;39.30;14.10;;;;;;;2.98;100.00;97996.50;5064296;28;20029;-54
2022/01/10 08:16:34;;;;;;;43.33;16.92;;;;;;;3.07;100.00;97997.28;5066231;28;20542;-54
2022/01/10 08:18:59;;;;;;;35.15;12.73;;;;;;;2.83;100.00;98002.66;5067352;28;20040;-53
2022/01/10 08:21:25;;;;;;;31.10;10.90;;;;;;;2.87;100.00;98012.94;5065623;28;20494;-53
2022/01/10 08:23:50;;;;;;;35.45;12.02;;;;;;;2.73;100.00;98011.38;5067131;28;20024;-55
2022/01/10 08:26:16;;;;;;;27.92;10.65;;;;;;;3.01;100.00;98017.94;5065665;28;20447;-53
2022/01/10 08:28:42;;;;;;;34.38;11.85;;;;;;;3.01;100.00;98019.66;5066294;28;20032;-54
2022/01/10 08:31:09;;;;;;;35.42;11.90;;;;;;;2.86;100.00;98018.94;5066077;28;20506;-54
2022/01/10 08:33:36;;;;;;;37.20;12.48;;;;;;;2.98;100.00;98020.56;5065885;28;20108;-54
2022/01/10 08:36:01;;;;;;;34.13;11.02;;;;;;;3.14;100.00;98026.41;5064793;28;20109;-53
2022/01/10 08:38:27;;;;;;;29.60;10.48;;;;;;;3.10;100.00;98032.47;5067431;28;20487;-52
2022/01/10 08:40:52;;;;;;;39.67;11.77;;;;;;;3.00;100.00;98039.44;5065383;28;20037;-53
2022/01/10 08:43:18;;;;;;;29.40;10.13;;;;;;;3.24;100.00;98050.38;5064783;28;20025;-53
2022/01/10 08:45:44;;;;;;;33.55;11.23;;;;;;;3.04;100.00;98053.16;5065529;28;20136;-52
2022/01/10 08:48:10;;;;;;;35.45;11.70;;;;;;;3.09;100.00;98059.13;5048063;28;20532;-52
2022/01/10 08:50:36;;;;;;;36.17;11.48;;;;;;;2.75;100.00;98066.31;5065287;28;20076;-53
2022/01/10 08:53:04;;;;;;;28.13;9.88;;;;;;;3.02;100.00;98078.94;5067683;28;20048;-54
2022/01/10 08:55:29;;;;;;;30.23;9.65;;;;;;;2.97;100.00;98072.13;5050305;28;20628;-52
2022/01/10 08:57:55;;;;;;;39.63;11.23;;;;;;;3.24;100.00;98076.16;5070694;28;20020;-52
2022/01/10 09:00:20;;;;;;;35.58;10.95;;;;;;;2.94;100.00;98077.28;5068917;28;20031;-52
2022/01/10 09:02:46;;;;;;;32.90;10.68;;;;;;;2.63;100.00;98082.72;5068982;28;20115;-53
2022/01/10 09:05:11;;;;;;;37.33;11.00;;;;;;;2.69;100.00;98092.97;5053313;28;20416;-52
2022/01/10 09:07:36;;;;;;;29.30;10.65;;;;;;;3.23;100.00;98089.91;5070505;28;20124;-52
2022/01/10 09:10:03;;;;;;;33.42;11.48;;;;;;;3.05;100.00;98090.91;5069426;28;20036;-52
2022/01/10 09:12:29;;;;;;;36.92;11.50;;;;;;;3.23;100.00;98095.91;5069431;28;20046;-54
2022/01/10 09:14:54;;;;;;;31.17;11.48;;;;;;;3.15;100.00;98095.13;5069306;28;20027;-54
2022/01/10 09:17:20;;;;;;;30.67;10.93;;;;;;;3.12;100.00;98105.47;5070202;28;20078;-54
2022/01/10 09:19:45;;;;;;;30.38;10.68;;;;;;;3.06;100.00;98106.38;5066489;28;20029;-53
2022/01/10 09:22:11;;;;;;;29.75;11.23;;;;;;;3.73;100.00;98113.41;5067423;28;20044;-53
2022/01/10 09:24:36;;;;;;;31.35;11.00;;;;;;;3.48;100.00;98111.97;5069328;28;20031;-53
2022/01/10 09:27:01;;;;;;;28.60;10.82;;;;;;;3.93;100.00;98114.03;5069204;28;20038;-52
2022/01/10 09:29:27;;;;;;;35.22;11.23;;;;;;;4.15;100.00;98124.94;5069868;28;20085;-53
2022/01/10 09:31:52;;;;;;;26.90;10.52;;;;;;;3.93;100.00;98126.09;5067978;28;20087;-53
2022/01/10 09:34:18;;;;;;;29.95;10.90;;;;;;;4.32;100.00;98129.88;5069033;28;20055;-52
2022/01/10 09:36:43;;;;;;;30.40;11.30;;;;;;;3.47;100.00;98133.50;5068749;28;20500;-54
2022/01/10 09:39:09;;;;;;;26.50;10.20;;;;;;;3.38;100.00;98145.59;5069169;28;20115;-54
2022/01/10 09:41:35;;;;;;;28.13;10.95;;;;;;;3.62;100.00;98155.69;5067665;28;20582;-52
2022/01/10 09:44:06;;;;;;;34.10;11.98;;;;;;;3.66;100.00;98148.78;5069472;28;20774;-51
2022/01/10 09:46:32;;;;;;;24.67;10.77;;;;;;;3.73;100.00;98155.56;5067418;28;20074;-53
2022/01/10 09:49:00;;;;;;;28.35;10.63;;;;;;;3.61;100.00;98156.53;5069584;28;20020;-54
2022/01/10 09:51:27;;;;;;;29.13;11.43;;;;;;;3.74;100.00;98164.16;5067716;28;20044;-53
2022/01/10 09:53:54;;;;;;;25.38;10.25;;;;;;;3.65;100.00;98168.53;5069005;28;20078;-54
2022/01/10 09:56:20;;;;;;;25.63;10.07;;;;;;;3.71;100.00;98175.34;5069172;28;20051;-54
2022/01/10 09:58:46;;;;;;;26.60;9.57;;;;;;;3.64;100.00;98172.00;5068064;28;20024;-54
2022/01/10 10:01:14;;;;;;;26.85;9.65;;;;;;;4.15;100.00;98173.13;5068003;28;20108;-52
2022/01/10 10:03:43;;;;;;;23.23;8.63;;;;;;;4.55;100.00;98172.63;5067643;28;20032;-54
2022/01/10 10:06:09;;;;;;;26.25;10.18;;;;;;;3.82;100.00;98177.81;5067657;28;20032;-55
2022/01/10 10:08:38;;;;;;;24.60;9.45;;;;;;;3.92;100.00;98189.75;5069090;28;20089;-55
2022/01/10 10:11:07;;;;;;;28.90;10.73;;;;;;;3.76;100.00;98177.91;5066535;28;20047;-53
2022/01/10 10:13:41;;;;;;;28.02;9.55;;;;;;;4.15;100.00;98191.19;5069385;28;20055;-55
2022/01/10 10:16:13;;;;;;;27.40;9.73;;;;;;;4.29;100.00;98189.31;5067600;28;20119;-56
2022/01/10 10:18:39;;;;;;;23.63;9.90;;;;;;;4.46;100.00;98185.66;5057495;28;20402;-54
2022/01/10 10:21:11;;;;;;;27.60;10.55;;;;;;;4.05;100.00;98196.47;5069119;28;20036;-55
2022/01/10 10:23:40;;;;;;;23.92;10.00;;;;;;;4.58;100.00;98190.66;5070756;28;20024;-54
2022/01/10 10:26:06;;;;;;;23.55;9.65;;;;;;;4.66;100.00;98199.16;5070334;28;20036;-55
2022/01/10 10:28:35;;;;;;;25.17;10.20;;;;;;;4.42;100.00;98198.59;5066559;28;20089;-54
2022/01/10 10:31:01;;;;;;;29.48;10.65;;;;;;;4.33;100.00;98209.06;5067996;28;20028;-54
2022/01/10 10:33:27;;;;;;;25.52;10.02;;;;;;;4.23;100.00;98217.81;5068738;28;20032;-54
2022/01/10 10:35:58;;;;;;;26.02;9.95;;;;;;;4.41;100.00;98209.81;5066589;28;20040;-56
2022/01/10 10:38:27;;;;;;;25.02;10.30;;;;;;;4.65;100.00;98207.78;5068807;28;20085;-55
2022/01/10 10:40:52;;;;;;;30.38;11.15;;;;;;;4.55;100.00;98216.53;5064669;28;20104;-55
2022/01/10 10:43:18;;;;;;;29.13;10.90;;;;;;;4.12;100.00;98222.22;5069964;28;20039;-52
2022/01/10 10:45:47;;;;;;;30.13;11.30;;;;;;;4.47;100.00;98221.81;5070273;28;20159;-55
2022/01/10 10:48:17;;;;;;;26.63;11.48;;;;;;;4.28;100.00;98233.22;5068003;28;20737;-52
2022/01/10 10:50:45;;;;;;;26.20;10.07;;;;;;;3.33;100.00;98235.03;5065025;28;20040;-53
2022/01/10 10:53:14;;;;;;;26.23;10.45;;;;;;;4.23;100.00;98230.72;5066386;28;20042;-54
2022/01/10 10:55:42;;;;;;;26.02;10.75;;;;;;;4.70;100.00;98236.97;5067797;28;20045;-54
2022/01/10 10:58:09;;;;;;;33.70;11.15;;;;;;;4.71;100.00;98238.69;5068418;28;20032;-53
2022/01/10 11:00:35;;;;;;;27.45;10.73;;;;;;;4.49;100.00;98243.28;5068783;28;20448;-54
2022/01/10 11:03:01;;;;;;;27.52;10.50;;;;;;;4.44;100.00;98245.91;5066702;28;20033;-54
2022/01/10 11:05:28;;;;;;;30.35;11.07;;;;;;;4.73;100.00;98244.69;5067210;28;20489;-53
2022/01/10 11:07:54;;;;;;;30.00;11.15;;;;;;;4.87;100.00;98248.81;5067202;28;20054;-54
2022/01/10 11:10:19;;;;;;;26.20;10.25;;;;;;;4.69;100.00;98248.22;5067740;28;20029;-54
2022/01/10 11:12:51;;;;;;;28.13;10.68;;;;;;;4.94;100.00;98256.44;5068012;28;20484;-53
2022/01/10 11:15:16;;;;;;;24.38;10.40;;;;;;;4.95;100.00;98257.34;5065645;28;20493;-53
2022/01/10 11:17:42;;;;;;;24.20;10.90;;;;;;;5.16;100.00;98267.34;5067354;28;20039;-54
2022/01/10 11:20:08;;;;;;;28.73;10.32;;;;;;;5.19;100.00;98264.72;5065844;28;20080;-55
2022/01/10 11:22:36;;;;;;;24.67;9.55;;;;;;;4.80;100.00;98264.41;5067518;28;20187;-54
2022/01/10 11:25:03;;;;;;;25.35;10.30;;;;;;;4.63;100.00;98271.53;5067080;28;20471;-54
2022/01/10 11:27:43;;;;;;;30.75;11.20;;;;;;;5.26;100.00;98277.56;5067375;28;20075;-55
2022/01/10 11:30:29;;;;;;;26.42;10.57;;;;;;;5.06;100.00;98264.94;5068014;28;20111;-54
2022/01/10 11:33:16;;;;;;;27.20;10.45;;;;;;;5.20;100.00;98273.31;5066434;28;20024;-55
2022/01/10 11:35:47;;;;;;;24.15;10.55;;;;;;;5.52;100.00;98271.97;5067049;28;20661;-52